createdAt,value
2023-03-25T00:01:41.989Z,99052.10
2023-03-25T00:04:10.316Z,99064.11
2023-03-25T00:06:39.409Z,99074.36
2023-03-25T00:09:08.705Z,99074.02
2023-03-25T00:11:37.901Z,99071.08
2023-03-25T00:14:06.593Z,99070.16
2023-03-25T00:16:41.796Z,99063.04
2023-03-25T00:19:10.323Z,99063.77
2023-03-25T00:21:40.041Z,99064.02
2023-03-25T00:24:08.306Z,99058.63
2023-03-25T00:26:42.672Z,99056.83
2023-03-25T00:29:10.804Z,99050.67
2023-03-25T00:31:40.640Z,99052.39
2023-03-25T00:34:09.204Z,99051.79
2023-03-25T00:36:38.807Z,99044.35
2023-03-25T00:39:08.572Z,99045.34
2023-03-25T00:41:37.403Z,99040.66
2023-03-25T00:44:06.212Z,99043.27
2023-03-25T00:46:34.790Z,99036.00
2023-03-25T00:49:04.712Z,99035.17
2023-03-25T00:51:36.463Z,99037.36
2023-03-25T00:54:23.852Z,99034.58
2023-03-25T00:56:53.650Z,99036.83
2023-03-25T00:59:22.220Z,99037.42
2023-03-25T01:01:53.408Z,99031.98
2023-03-25T01:04:22.325Z,99033.73
2023-03-25T01:06:53.774Z,99037.09
2023-03-25T01:09:22.464Z,99037.72
2023-03-25T01:11:50.944Z,99041.13
2023-03-25T01:14:21.137Z,99043.87
2023-03-25T01:16:50.489Z,99042.94
2023-03-25T01:19:18.944Z,99043.19
2023-03-25T01:21:49.582Z,99042.45
2023-03-25T01:24:18.168Z,99039.45
2023-03-25T01:26:46.291Z,99037.27
2023-03-25T01:29:17.376Z,99040.55
2023-03-25T01:31:45.649Z,99032.75
2023-03-25T01:34:14.452Z,99037.31
2023-03-25T01:36:46.918Z,99037.09
2023-03-25T01:39:19.212Z,99035.79
2023-03-25T01:41:50.632Z,99034.27
2023-03-25T01:44:19.574Z,99030.28
2023-03-25T01:46:49.658Z,99030.67
2023-03-25T01:49:44.646Z,99028.98
2023-03-25T01:52:16.516Z,99024.86
2023-03-25T01:54:45.017Z,99026.34
2023-03-25T01:57:14.009Z,99028.71
2023-03-25T01:59:42.568Z,99029.11
2023-03-25T02:02:17.809Z,99024.55
2023-03-25T02:04:59.173Z,99024.95
2023-03-25T02:07:31.209Z,99026.20
2023-03-25T02:10:02.361Z,99023.20
2023-03-25T02:12:31.309Z,99021.48
2023-03-25T02:15:03.309Z,99015.55
2023-03-25T02:18:00.961Z,99009.29
2023-03-25T02:20:45.836Z,99008.33
2023-03-25T02:23:28.614Z,99005.13
2023-03-25T02:26:33.173Z,99004.44
2023-03-25T02:29:15.345Z,99003.46
2023-03-25T02:32:05.849Z,98998.68
2023-03-25T02:35:00.217Z,99003.94
2023-03-25T02:37:53.605Z,99010.61
2023-03-25T02:40:48.953Z,99008.80
2023-03-25T02:43:30.690Z,99009.55
2023-03-25T02:46:01.553Z,99004.58
2023-03-25T02:48:39.178Z,98999.23
2023-03-25T02:51:17.806Z,98993.37
2023-03-25T02:53:46.795Z,98993.25
2023-03-25T02:56:17.066Z,98996.10
2023-03-25T02:58:45.605Z,99002.28
2023-03-25T03:01:15.259Z,99004.48
2023-03-25T03:03:44.947Z,99004.21
2023-03-25T03:06:16.727Z,99002.94
2023-03-25T03:08:51.842Z,98998.16
2023-03-25T03:11:24.912Z,98995.91
2023-03-25T03:14:26.005Z,98992.73
2023-03-25T03:17:08.940Z,98985.96
2023-03-25T03:19:39.210Z,98981.65
2023-03-25T03:22:39.754Z,98977.27
2023-03-25T03:25:11.308Z,98977.27
2023-03-25T03:27:53.172Z,98969.34
2023-03-25T03:30:39.396Z,98967.73
2023-03-25T03:33:22.028Z,98975.83
2023-03-25T03:35:57.617Z,98972.27
2023-03-25T03:38:27.370Z,98975.20
2023-03-25T03:40:57.393Z,98979.75
2023-03-25T03:46:10.799Z,98987.00
2023-03-25T03:48:44.978Z,98985.48
2023-03-25T03:51:19.703Z,98986.79
2023-03-25T03:54:13.253Z,98991.48
2023-03-25T03:56:46.787Z,98992.67
2023-03-25T03:59:53.847Z,98990.81
2023-03-25T04:02:32.718Z,98992.29
2023-03-25T04:05:01.020Z,98991.55
2023-03-25T04:07:40.540Z,98988.55
2023-03-25T04:10:16.484Z,98992.14
2023-03-25T04:12:51.395Z,98992.14
2023-03-25T04:15:23.160Z,98992.10
2023-03-25T04:17:53.292Z,98999.80
2023-03-25T04:20:24.126Z,99000.73
2023-03-25T04:22:53.149Z,99001.05
2023-03-25T04:25:21.853Z,98995.18
2023-03-25T04:27:50.269Z,98988.39
2023-03-25T04:30:19.388Z,98985.58
2023-03-25T04:32:48.093Z,98974.20
2023-03-25T04:35:19.497Z,98975.73
2023-03-25T04:37:53.920Z,98971.80
2023-03-25T04:40:22.098Z,98968.34
2023-03-25T04:42:51.335Z,98968.71
2023-03-25T04:45:19.506Z,98970.15
2023-03-25T04:47:49.785Z,98964.21
2023-03-25T04:50:28.686Z,98959.69
2023-03-25T04:53:03.425Z,98955.92
2023-03-25T04:55:34.833Z,98953.88
2023-03-25T04:58:03.284Z,98951.86
2023-03-25T05:00:33.934Z,98949.42
2023-03-25T05:03:02.941Z,98946.20
2023-03-25T05:05:31.710Z,98948.44
2023-03-25T05:08:01.772Z,98947.63
2023-03-25T05:10:30.736Z,98944.93
2023-03-25T05:13:03.918Z,98943.18
2023-03-25T05:15:39.304Z,98935.35
2023-03-25T05:18:14.911Z,98937.10
2023-03-25T05:20:51.175Z,98936.89
2023-03-25T05:23:23.758Z,98939.23
2023-03-25T05:25:52.221Z,98941.56
2023-03-25T05:28:20.948Z,98938.64
2023-03-25T05:30:51.893Z,98937.39
2023-03-25T05:33:22.374Z,98938.16
2023-03-25T05:35:50.910Z,98942.15
2023-03-25T05:38:19.457Z,98940.06
2023-03-25T05:40:48.791Z,98934.65
2023-03-25T05:43:23.294Z,98931.77
2023-03-25T05:45:53.255Z,98930.52
2023-03-25T05:48:22.715Z,98924.34
2023-03-25T05:50:50.990Z,98921.39
2023-03-25T05:53:20.912Z,98916.01
2023-03-25T05:55:54.241Z,98920.05
2023-03-25T05:58:25.274Z,98914.95
2023-03-25T06:00:55.360Z,98909.47
2023-03-25T06:03:26.413Z,98910.49
2023-03-25T06:05:55.502Z,98905.99
2023-03-25T06:08:26.535Z,98898.80
2023-03-25T06:11:01.067Z,98901.98
2023-03-25T06:13:34.177Z,98895.69
2023-03-25T06:16:03.626Z,98903.83
2023-03-25T06:18:33.175Z,98895.67
2023-03-25T06:21:03.912Z,98894.80
2023-03-25T06:23:36.801Z,98892.50
2023-03-25T06:26:05.529Z,98888.85
2023-03-25T06:28:35.015Z,98888.00
2023-03-25T06:31:26.865Z,98890.58
2023-03-25T06:33:56.392Z,98889.80
2023-03-25T06:36:26.228Z,98894.27
2023-03-25T06:38:54.937Z,98897.14
2023-03-25T06:41:36.103Z,98896.91
2023-03-25T06:44:16.992Z,98902.52
2023-03-25T06:47:12.296Z,98900.39
2023-03-25T06:49:50.934Z,98901.70
2023-03-25T06:52:19.400Z,98905.69
2023-03-25T06:54:49.228Z,98906.34
2023-03-25T06:57:17.794Z,98905.87
2023-03-25T06:59:47.659Z,98899.48
2023-03-25T07:02:16.226Z,98898.25
2023-03-25T07:04:44.541Z,98901.48
2023-03-25T07:07:13.230Z,98897.80
2023-03-25T07:09:41.551Z,98891.09
2023-03-25T07:12:10.228Z,98893.54
2023-03-25T07:14:38.783Z,98889.60
2023-03-25T07:17:07.204Z,98884.65
2023-03-25T07:19:37.180Z,98884.02
2023-03-25T07:22:08.665Z,98887.31
2023-03-25T07:24:39.605Z,98889.31
2023-03-25T07:27:07.965Z,98888.86
2023-03-25T07:29:37.198Z,98889.49
2023-03-25T07:32:06.418Z,98889.87
2023-03-25T07:34:34.904Z,98883.97
2023-03-25T07:37:04.503Z,98883.27
2023-03-25T07:39:32.583Z,98878.07
2023-03-25T07:42:02.570Z,98877.54
2023-03-25T07:44:51.023Z,98876.41
2023-03-25T07:47:21.960Z,98873.48
2023-03-25T07:49:50.284Z,98870.29
2023-03-25T07:52:18.824Z,98865.45
2023-03-25T07:54:47.062Z,98860.45
2023-03-25T07:57:15.687Z,98856.30
2023-03-25T07:59:47.960Z,98849.20
2023-03-25T08:02:16.355Z,98849.16
2023-03-25T08:04:44.924Z,98850.26
2023-03-25T08:07:13.411Z,98850.95
2023-03-25T08:09:43.026Z,98848.71
2023-03-25T08:12:11.249Z,98838.64
2023-03-25T08:14:43.280Z,98835.33
2023-03-25T08:17:11.639Z,98839.52
2023-03-25T08:19:42.440Z,98833.05
2023-03-25T08:22:11.366Z,98825.73
2023-03-25T08:24:39.847Z,98822.52
2023-03-25T08:27:14.087Z,98813.77
2023-03-25T08:29:47.180Z,98804.89
2023-03-25T08:32:15.577Z,98805.70
2023-03-25T08:34:44.001Z,98808.67
2023-03-25T08:37:14.344Z,98817.13
2023-03-25T08:39:45.512Z,98819.92
2023-03-25T08:42:14.775Z,98820.72
2023-03-25T08:44:43.168Z,98811.59
2023-03-25T08:47:11.398Z,98807.09
2023-03-25T08:49:41.782Z,98808.93
2023-03-25T08:52:11.432Z,98808.18
2023-03-25T08:54:40.794Z,98814.86
2023-03-25T08:57:09.635Z,98820.27
2023-03-25T08:59:38.287Z,98816.35
2023-03-25T09:02:06.683Z,98811.17
2023-03-25T09:04:41.175Z,98815.04
2023-03-25T09:07:12.597Z,98810.08
2023-03-25T09:09:41.560Z,98807.33
2023-03-25T09:12:12.761Z,98800.71
2023-03-25T09:14:41.789Z,98794.39
2023-03-25T09:17:11.098Z,98789.63
2023-03-25T09:19:41.294Z,98782.44
2023-03-25T09:22:09.859Z,98779.39
2023-03-25T09:24:39.180Z,98776.05
2023-03-25T09:27:07.888Z,98773.59
2023-03-25T09:29:36.691Z,98775.59
2023-03-25T09:32:18.860Z,98779.73
2023-03-25T09:34:48.720Z,98782.36
2023-03-25T09:37:17.967Z,98785.75
2023-03-25T09:39:47.473Z,98792.73
2023-03-25T09:42:31.246Z,98790.81
2023-03-25T09:45:29.756Z,98783.98
2023-03-25T09:48:03.548Z,98778.25
2023-03-25T09:50:33.119Z,98777.57
2023-03-25T09:53:11.204Z,98765.73
2023-03-25T09:55:41.888Z,98764.73
2023-03-25T09:58:28.861Z,98760.30
2023-03-25T10:01:01.393Z,98760.45
2023-03-25T10:03:58.958Z,98761.65
2023-03-25T10:06:27.592Z,98763.64
2023-03-25T10:09:02.040Z,98756.11
2023-03-25T10:11:37.481Z,98758.14
2023-03-25T10:14:40.488Z,98755.27
2023-03-25T10:17:36.287Z,98757.58
2023-03-25T10:20:40.992Z,98757.59
2023-03-25T10:23:18.324Z,98754.88
2023-03-25T10:25:48.642Z,98755.98
2023-03-25T10:28:20.859Z,98757.91
2023-03-25T10:30:51.247Z,98756.14
2023-03-25T10:33:27.808Z,98753.33
2023-03-25T10:35:59.845Z,98753.34
2023-03-25T10:38:30.366Z,98750.91
2023-03-25T10:41:10.979Z,98750.69
2023-03-25T10:43:41.788Z,98743.40
2023-03-25T10:47:01.216Z,98738.66
2023-03-25T10:49:30.919Z,98731.83
2023-03-25T10:51:59.733Z,98733.33
2023-03-25T10:54:32.000Z,98730.92
2023-03-25T10:57:04.067Z,98730.10
2023-03-25T10:59:41.543Z,98721.30
2023-03-25T11:02:25.473Z,98719.48
2023-03-25T11:05:03.170Z,98717.63
2023-03-25T11:07:34.931Z,98712.45
2023-03-25T11:10:11.882Z,98709.59
2023-03-25T11:12:48.541Z,98711.54
2023-03-25T11:15:22.725Z,98706.23
2023-03-25T11:18:19.896Z,98700.22
2023-03-25T11:20:50.262Z,98695.70
2023-03-25T11:23:37.614Z,98691.14
2023-03-25T11:26:08.851Z,98688.60
2023-03-25T11:28:40.373Z,98687.50
2023-03-25T11:31:14.649Z,98693.04
2023-03-25T11:33:45.399Z,98692.16
2023-03-25T11:36:17.913Z,98695.19
2023-03-25T11:38:47.632Z,98693.00
2023-03-25T11:41:15.830Z,98691.39
2023-03-25T11:43:48.207Z,98689.45
2023-03-25T11:46:18.381Z,98687.62
2023-03-25T11:48:47.008Z,98694.11
2023-03-25T11:51:19.712Z,98697.84
2023-03-25T11:53:57.809Z,98701.98
2023-03-25T11:56:31.611Z,98698.63
2023-03-25T11:59:01.472Z,98699.98
2023-03-25T12:01:51.153Z,98695.70
2023-03-25T12:04:21.321Z,98695.58
2023-03-25T12:07:09.491Z,98692.27
2023-03-25T12:17:40.543Z,98695.10
2023-03-25T12:20:51.670Z,98697.01
2023-03-25T12:23:42.197Z,98692.80
2023-03-25T12:26:11.557Z,98683.17
2023-03-25T12:28:39.618Z,98680.84
2023-03-25T12:31:20.781Z,98672.19
2023-03-25T12:34:08.202Z,98680.52
2023-03-25T12:36:44.428Z,98683.64
2023-03-25T12:39:43.177Z,98691.88
2023-03-25T12:42:22.050Z,98686.54
2023-03-25T12:45:18.885Z,98689.39
2023-03-25T12:47:49.999Z,98680.52
2023-03-25T12:50:26.919Z,98683.14
2023-03-25T12:53:20.505Z,98685.02
2023-03-25T12:56:23.567Z,98683.60
2023-03-25T12:59:12.344Z,98679.73
2023-03-25T13:02:15.140Z,98677.77
2023-03-25T13:05:03.061Z,98678.48
2023-03-25T13:07:41.250Z,98674.58
2023-03-25T13:10:21.366Z,98672.08
2023-03-25T13:12:54.650Z,98665.70
2023-03-25T13:15:28.666Z,98660.61
2023-03-25T13:18:14.203Z,98664.29
2023-03-25T13:20:46.719Z,98659.08
2023-03-25T13:23:18.032Z,98653.80
2023-03-25T13:26:06.641Z,98657.77
2023-03-25T13:29:00.236Z,98659.46
2023-03-25T13:31:42.910Z,98655.48
2023-03-25T13:34:11.349Z,98657.30
2023-03-25T13:36:44.317Z,98656.10
2023-03-25T13:39:25.505Z,98655.64
2023-03-25T13:42:07.006Z,98650.04
2023-03-25T13:44:39.766Z,98642.28
2023-03-25T13:47:29.541Z,98635.77
2023-03-25T13:50:00.461Z,98631.47
2023-03-25T13:52:32.070Z,98622.00
2023-03-25T13:55:04.645Z,98611.67
2023-03-25T13:57:51.913Z,98605.73
2023-03-25T14:00:45.031Z,98602.48
2023-03-25T14:03:26.845Z,98600.34
2023-03-25T14:06:50.143Z,98598.23
2023-03-25T14:09:48.523Z,98594.12
2023-03-25T14:12:26.484Z,98592.63
2023-03-25T14:15:05.412Z,98589.19
2023-03-25T14:17:35.857Z,98589.40
2023-03-25T14:20:05.918Z,98584.69
2023-03-25T14:22:43.810Z,98584.14
2023-03-25T14:25:21.849Z,98582.58
2023-03-25T14:27:50.694Z,98578.73
2023-03-25T14:30:22.360Z,98576.17
2023-03-25T14:32:52.135Z,98577.11
2023-03-25T14:35:33.364Z,98570.03
2023-03-25T14:38:08.465Z,98568.52
2023-03-25T14:41:01.264Z,98558.80
2023-03-25T14:43:48.326Z,98558.63
2023-03-25T14:46:20.724Z,98559.29
2023-03-25T14:48:52.622Z,98556.61
2023-03-25T14:51:23.097Z,98553.88
2023-03-25T14:54:02.761Z,98551.44
2023-03-25T14:56:39.476Z,98550.27
2023-03-25T14:59:14.455Z,98547.80
2023-03-25T15:01:43.782Z,98545.63
2023-03-25T15:04:18.225Z,98547.33
2023-03-25T15:06:52.185Z,98550.46
2023-03-25T15:09:20.866Z,98546.70
2023-03-25T15:12:00.403Z,98545.04
2023-03-25T15:14:36.044Z,98550.91
2023-03-25T15:17:06.651Z,98548.66
2023-03-25T15:20:10.812Z,98539.98
2023-03-25T15:22:40.723Z,98540.20
2023-03-25T15:25:17.013Z,98539.50
2023-03-25T15:28:04.641Z,98527.10
2023-03-25T15:31:16.469Z,98526.69
2023-03-25T15:34:05.192Z,98527.20
2023-03-25T15:36:48.824Z,98521.30
2023-03-25T15:39:38.544Z,98521.27
2023-03-25T15:42:13.200Z,98514.09
2023-03-25T15:45:01.470Z,98511.23
2023-03-25T15:47:37.894Z,98515.21
2023-03-25T15:50:12.073Z,98512.28
2023-03-25T15:53:09.015Z,98512.34
2023-03-25T15:55:40.665Z,98505.65
2023-03-25T15:58:14.692Z,98504.84
2023-03-25T16:00:47.305Z,98505.83
2023-03-25T16:04:18.760Z,98519.60
2023-03-25T16:06:48.981Z,98516.02
2023-03-25T16:09:28.824Z,98518.80
2023-03-25T16:12:01.229Z,98519.39
2023-03-25T16:14:31.403Z,98518.29
2023-03-25T16:17:06.789Z,98517.80
2023-03-25T16:19:50.711Z,98522.35
2023-03-25T16:22:33.073Z,98521.08
2023-03-25T16:25:03.948Z,98518.32
2023-03-25T16:27:37.126Z,98517.84
2023-03-25T16:30:20.351Z,98514.21
2023-03-25T16:32:48.930Z,98519.38
2023-03-25T16:35:24.840Z,98515.48
2023-03-25T16:37:57.339Z,98515.98
2023-03-25T16:40:30.845Z,98520.40
2023-03-25T16:43:06.054Z,98518.52
2023-03-25T16:53:20.410Z,98518.27
2023-03-25T16:55:50.984Z,98520.51
2023-03-25T16:58:22.279Z,98518.05
2023-03-25T17:00:53.900Z,98515.61
2023-03-25T17:03:47.346Z,98513.67
2023-03-25T17:06:28.632Z,98513.80
2023-03-25T17:08:59.050Z,98509.67
2023-03-25T17:11:31.559Z,98512.16
2023-03-25T17:14:08.728Z,98509.28
2023-03-25T17:16:38.340Z,98506.89
2023-03-25T17:19:08.157Z,98504.84
2023-03-25T17:21:38.743Z,98503.70
2023-03-25T17:24:24.095Z,98505.27
2023-03-25T17:27:07.494Z,98505.40
2023-03-25T17:29:49.809Z,98502.12
2023-03-25T17:32:18.499Z,98499.35
2023-03-25T17:34:59.129Z,98497.00
2023-03-25T17:37:27.710Z,98496.48
2023-03-25T17:39:57.384Z,98503.17
2023-03-25T17:42:26.372Z,98501.04
2023-03-25T17:44:54.493Z,98496.30
2023-03-25T17:47:24.150Z,98491.16
2023-03-25T17:49:52.994Z,98483.89
2023-03-25T17:52:21.175Z,98477.92
2023-03-25T17:54:49.755Z,98465.64
2023-03-25T17:57:18.459Z,98460.35
2023-03-25T17:59:47.334Z,98459.60
2023-03-25T18:02:16.647Z,98460.50
2023-03-25T18:04:45.022Z,98456.48
2023-03-25T18:07:13.430Z,98460.11
2023-03-25T18:09:43.165Z,98462.34
2023-03-25T18:12:14.836Z,98465.30
2023-03-25T18:14:45.128Z,98466.55
2023-03-25T18:17:13.378Z,98469.19
2023-03-25T18:19:47.722Z,98472.13
2023-03-25T18:22:20.176Z,98466.95
2023-03-25T18:24:48.947Z,98467.84
2023-03-25T18:27:27.785Z,98463.85
2023-03-25T18:30:13.261Z,98466.83
2023-03-25T18:32:41.656Z,98470.40
2023-03-25T18:35:10.565Z,98476.52
2023-03-25T18:37:39.443Z,98479.38
2023-03-25T18:40:36.180Z,98484.98
2023-03-25T18:43:04.592Z,98482.34
2023-03-25T18:45:33.248Z,98488.41
2023-03-25T18:48:02.765Z,98489.03
2023-03-25T18:50:38.767Z,98488.61
2023-03-25T18:53:09.953Z,98489.44
2023-03-25T18:55:38.461Z,98488.39
2023-03-25T18:58:08.015Z,98488.71
2023-03-25T19:00:39.896Z,98485.08
2023-03-25T19:03:08.497Z,98480.37
2023-03-25T19:05:36.987Z,98473.98
2023-03-25T19:08:07.405Z,98466.00
2023-03-25T19:10:36.193Z,98464.98
2023-03-25T19:13:08.688Z,98464.89
2023-03-25T19:15:38.632Z,98469.26
2023-03-25T19:24:44.178Z,98457.83
2023-03-25T19:27:12.374Z,98443.84
2023-03-25T19:29:39.822Z,98437.39
2023-03-25T19:32:06.998Z,98428.94
2023-03-25T19:34:45.887Z,98427.06
2023-03-25T19:37:13.447Z,98443.70
2023-03-25T19:39:42.140Z,98441.46
2023-03-25T19:42:09.360Z,98443.96
2023-03-25T19:44:36.646Z,98444.84
2023-03-25T19:47:09.222Z,98447.07
2023-03-25T19:49:40.124Z,98443.36
2023-03-25T19:52:07.424Z,98443.02
2023-03-25T19:54:35.394Z,98437.73
2023-03-25T19:57:02.376Z,98430.95
2023-03-25T19:59:36.594Z,98426.20
2023-03-25T20:02:03.804Z,98419.48
2023-03-25T20:04:31.370Z,98419.15
2023-03-25T20:07:03.846Z,98413.59
2023-03-25T20:09:32.024Z,98416.44
2023-03-25T20:11:58.862Z,98414.96
2023-03-25T20:14:29.699Z,98408.73
2023-03-25T20:16:57.511Z,98404.64
2023-03-25T20:19:24.930Z,98402.34
2023-03-25T20:21:52.350Z,98406.29
2023-03-25T20:24:19.555Z,98407.80
2023-03-25T20:26:46.500Z,98400.70
2023-03-25T20:29:17.125Z,98396.64
2023-03-25T20:31:45.319Z,98397.89
2023-03-25T20:34:13.166Z,98393.40
2023-03-25T20:36:41.248Z,98384.53
2023-03-25T20:39:08.085Z,98375.67
2023-03-25T20:41:37.392Z,98373.35
2023-03-25T20:44:06.389Z,98373.17
2023-03-25T20:46:34.615Z,98369.91
2023-03-25T20:49:02.837Z,98361.95
2023-03-25T20:51:31.935Z,98355.75
2023-03-25T20:53:59.132Z,98350.85
2023-03-25T20:56:26.034Z,98344.75
2023-03-25T20:58:55.034Z,98337.19
2023-03-25T21:01:22.962Z,98334.48
2023-03-25T21:03:51.370Z,98332.56
2023-03-25T21:06:23.727Z,98330.66
2023-03-25T21:08:54.282Z,98329.21
2023-03-25T21:11:21.433Z,98328.89
2023-03-25T21:13:51.043Z,98325.20
2023-03-25T21:16:17.959Z,98323.25
2023-03-25T21:18:45.544Z,98326.41
2023-03-25T21:21:12.192Z,98324.63
2023-03-25T21:23:42.489Z,98317.19
2023-03-25T21:26:10.240Z,98318.98
2023-03-25T21:28:37.733Z,98309.43
2023-03-25T21:31:07.195Z,98308.48
2023-03-25T21:33:37.684Z,98306.88
2023-03-25T21:36:06.607Z,98308.59
2023-03-25T21:38:36.891Z,98307.84
2023-03-25T21:41:05.209Z,98306.23
2023-03-25T21:43:33.242Z,98304.52
2023-03-25T21:46:05.499Z,98309.58
2023-03-25T21:48:33.303Z,98305.33
2023-03-25T21:51:01.042Z,98306.92
2023-03-25T21:53:31.640Z,98301.15
2023-03-25T21:56:03.754Z,98296.45
2023-03-25T21:58:31.927Z,98296.44
2023-03-25T22:00:59.923Z,98293.37
2023-03-25T22:03:29.597Z,98289.63
2023-03-25T22:06:02.031Z,98291.05
2023-03-25T22:08:29.016Z,98290.14
2023-03-25T22:11:05.832Z,98289.33
2023-03-25T22:13:32.859Z,98287.05
2023-03-25T22:15:59.906Z,98286.52
2023-03-25T22:18:28.567Z,98287.52
2023-03-25T22:21:15.116Z,98290.02
2023-03-25T22:23:45.048Z,98291.21
2023-03-25T22:26:12.748Z,98296.20
2023-03-25T22:28:42.036Z,98297.56
2023-03-25T22:31:10.076Z,98289.91
2023-03-25T22:33:37.727Z,98287.83
2023-03-25T22:36:11.214Z,98288.07
2023-03-25T22:38:44.093Z,98286.42
2023-03-25T22:41:13.389Z,98286.04
2023-03-25T22:43:41.224Z,98284.34
2023-03-25T22:46:08.566Z,98280.54
2023-03-25T22:48:40.490Z,98280.21
2023-03-25T22:51:11.719Z,98283.16
2023-03-25T22:53:38.999Z,98283.41
2023-03-25T22:56:07.054Z,98282.29
2023-03-25T22:58:34.323Z,98283.58
2023-03-25T23:01:05.419Z,98284.38
2023-03-25T23:03:32.857Z,98284.60
2023-03-25T23:06:02.447Z,98279.80
2023-03-25T23:08:34.583Z,98278.32
2023-03-25T23:11:07.079Z,98275.05
2023-03-25T23:13:34.217Z,98277.59
2023-03-25T23:16:04.048Z,98273.79
2023-03-25T23:18:33.048Z,98275.47
2023-03-25T23:21:00.900Z,98278.56
2023-03-25T23:23:28.456Z,98277.39
2023-03-25T23:26:05.535Z,98272.08
2023-03-25T23:28:36.687Z,98268.75
2023-03-25T23:31:09.039Z,98263.44
2023-03-25T23:33:36.011Z,98263.48
2023-03-25T23:36:04.837Z,98265.09
2023-03-25T23:38:32.062Z,98266.55
2023-03-25T23:41:08.120Z,98266.66
2023-03-25T23:43:35.880Z,98265.41
2023-03-25T23:46:04.460Z,98260.33
2023-03-25T23:48:33.156Z,98263.04
2023-03-25T23:50:59.838Z,98258.19
2023-03-25T23:53:27.609Z,98254.77
2023-03-25T23:55:55.339Z,98247.11
2023-03-25T23:58:25.405Z,98245.52
